createdAt,value
2022-08-11T00:00:52.506Z,0.00
2022-08-11T00:01:52.453Z,0.00
2022-08-11T00:02:52.495Z,0.00
2022-08-11T00:03:52.424Z,0.00
2022-08-11T00:04:52.417Z,0.00
2022-08-11T00:05:52.419Z,0.00
2022-08-11T00:06:52.401Z,0.00
2022-08-11T00:07:52.396Z,0.00
2022-08-11T00:08:52.370Z,0.00
2022-08-11T00:09:52.364Z,0.00
2022-08-11T00:10:52.359Z,0.00
2022-08-11T00:11:52.336Z,0.00
2022-08-11T00:12:52.357Z,0.00
2022-08-11T00:13:52.319Z,0.00
2022-08-11T00:14:52.336Z,0.00
2022-08-11T00:15:52.296Z,0.00
2022-08-11T00:16:52.285Z,0.00
2022-08-11T00:17:52.277Z,0.00
2022-08-11T00:18:52.281Z,0.00
2022-08-11T00:20:14.592Z,0.00
2022-08-11T00:20:53.352Z,0.00
2022-08-11T00:22:03.897Z,0.00
2022-08-11T00:22:53.263Z,0.00
2022-08-11T00:23:52.211Z,0.00
2022-08-11T00:24:56.027Z,0.00
2022-08-11T00:25:53.180Z,0.00
2022-08-11T00:26:52.227Z,0.00
2022-08-11T00:27:52.164Z,0.00
2022-08-11T00:28:52.166Z,0.00
2022-08-11T00:29:52.145Z,0.00
2022-08-11T00:30:52.126Z,0.00
2022-08-11T00:31:52.225Z,0.00
2022-08-11T00:32:52.112Z,0.00
2022-08-11T00:33:52.099Z,0.00
2022-08-11T00:34:52.086Z,0.00
2022-08-11T00:35:57.257Z,0.00
2022-08-11T00:36:52.064Z,0.00
2022-08-11T00:37:52.067Z,0.00
2022-08-11T00:38:52.053Z,0.00
2022-08-11T00:39:52.104Z,0.00
2022-08-11T00:40:52.031Z,0.00
2022-08-11T00:41:53.736Z,0.00
2022-08-11T00:42:52.002Z,0.00
2022-08-11T00:43:52.035Z,0.00
2022-08-11T00:44:52.019Z,0.00
2022-08-11T00:45:51.988Z,0.00
2022-08-11T00:46:51.951Z,0.00
2022-08-11T00:47:51.959Z,0.00
2022-08-11T00:48:51.945Z,0.00
2022-08-11T00:49:51.924Z,0.00
2022-08-11T00:50:51.916Z,0.00
2022-08-11T00:52:04.133Z,0.00
2022-08-11T00:52:52.898Z,0.00
2022-08-11T00:53:51.879Z,0.00
2022-08-11T00:54:51.875Z,0.00
2022-08-11T00:55:55.791Z,0.00
2022-08-11T00:56:51.855Z,0.00
2022-08-11T00:57:51.842Z,0.00
2022-08-11T00:58:51.839Z,0.00
2022-08-11T00:59:51.829Z,0.00
2022-08-11T01:00:51.843Z,0.00
2022-08-11T01:01:51.791Z,0.00
2022-08-11T01:02:51.951Z,0.00
2022-08-11T01:03:51.777Z,0.00
2022-08-11T01:04:55.657Z,0.00
2022-08-11T01:05:51.754Z,0.00
2022-08-11T01:06:51.731Z,0.00
2022-08-11T01:08:02.129Z,0.00
2022-08-11T01:08:52.730Z,0.00
2022-08-11T01:09:51.706Z,0.00
2022-08-11T01:10:51.685Z,0.00
2022-08-11T01:11:55.919Z,0.00
2022-08-11T01:12:51.668Z,0.00
2022-08-11T01:13:51.663Z,0.00
2022-08-11T01:14:51.658Z,0.00
2022-08-11T01:15:56.012Z,0.00
2022-08-11T01:16:52.628Z,0.00
2022-08-11T01:17:51.618Z,0.00
2022-08-11T01:18:51.606Z,0.00
2022-08-11T01:20:46.666Z,0.00
2022-08-11T01:20:52.614Z,0.00
2022-08-11T01:21:51.590Z,0.00
2022-08-11T01:22:51.560Z,0.00
2022-08-11T01:23:51.547Z,0.00
2022-08-11T01:24:51.568Z,0.00
2022-08-11T01:25:57.146Z,0.00
2022-08-11T01:26:52.666Z,0.00
2022-08-11T01:27:51.511Z,0.00
2022-08-11T01:28:51.491Z,0.00
2022-08-11T01:29:51.484Z,0.00
2022-08-11T01:30:54.160Z,0.00
2022-08-11T01:31:51.467Z,0.00
2022-08-11T01:32:51.466Z,0.00
2022-08-11T01:33:51.438Z,0.00
2022-08-11T01:34:51.423Z,0.00
2022-08-11T01:35:51.413Z,0.00
2022-08-11T01:36:56.722Z,0.00
2022-08-11T01:37:52.418Z,0.00
2022-08-11T01:38:51.381Z,0.00
2022-08-11T01:39:51.416Z,0.00
2022-08-11T01:40:51.374Z,0.00
2022-08-11T01:41:51.357Z,0.00
2022-08-11T01:42:51.332Z,0.00
2022-08-11T01:43:51.331Z,0.00
2022-08-11T01:44:51.324Z,0.00
2022-08-11T01:45:51.309Z,0.00
2022-08-11T01:46:51.302Z,0.00
2022-08-11T01:47:52.984Z,0.00
2022-08-11T01:48:51.272Z,0.00
2022-08-11T01:50:08.186Z,0.00
2022-08-11T01:50:52.303Z,0.00
2022-08-11T01:51:51.252Z,0.00
2022-08-11T01:52:51.234Z,0.00
2022-08-11T01:53:51.220Z,0.00
2022-08-11T01:54:51.209Z,0.00
2022-08-11T01:55:51.219Z,0.00
2022-08-11T01:56:51.183Z,0.00
2022-08-11T01:57:51.197Z,0.00
2022-08-11T01:58:51.161Z,0.00
2022-08-11T01:59:51.153Z,0.00
2022-08-11T02:00:51.191Z,0.00
2022-08-11T02:01:51.141Z,0.00
2022-08-11T02:02:51.126Z,0.00
2022-08-11T02:03:51.129Z,0.00
2022-08-11T02:04:51.103Z,0.00
2022-08-11T02:05:51.091Z,0.00
2022-08-11T02:06:51.082Z,0.00
2022-08-11T02:07:51.072Z,0.00
2022-08-11T02:08:51.064Z,0.00
2022-08-11T02:09:51.956Z,0.00
2022-08-11T02:10:51.519Z,0.00
2022-08-11T02:11:51.177Z,0.00
2022-08-11T02:12:51.244Z,0.00
2022-08-11T02:13:50.994Z,0.00
2022-08-11T02:14:53.525Z,0.00
2022-08-11T02:15:51.975Z,0.00
2022-08-11T02:16:50.980Z,0.00
2022-08-11T02:17:50.967Z,0.00
2022-08-11T02:18:50.948Z,0.00
2022-08-11T02:19:50.938Z,0.00
2022-08-11T02:20:50.920Z,0.00
2022-08-11T02:21:50.911Z,0.00
2022-08-11T02:22:50.905Z,0.00
2022-08-11T02:24:05.836Z,0.00
2022-08-11T02:24:51.885Z,0.00
2022-08-11T02:25:50.871Z,0.00
2022-08-11T02:26:50.865Z,0.00
2022-08-11T02:27:50.865Z,0.00
2022-08-11T02:28:50.859Z,0.00
2022-08-11T02:29:50.823Z,0.00
2022-08-11T02:30:50.820Z,0.00
2022-08-11T02:32:15.793Z,0.00
2022-08-11T02:32:51.795Z,0.00
2022-08-11T02:33:50.789Z,0.00
2022-08-11T02:35:00.142Z,0.00
2022-08-11T02:35:51.831Z,0.00
2022-08-11T02:36:50.758Z,0.00
2022-08-11T02:37:50.743Z,0.00
2022-08-11T02:38:50.725Z,0.00
2022-08-11T02:39:50.766Z,0.00
2022-08-11T02:40:50.757Z,0.00
2022-08-11T02:41:50.700Z,0.00
2022-08-11T02:42:50.696Z,0.00
2022-08-11T02:43:51.073Z,0.00
2022-08-11T02:44:50.680Z,0.00
2022-08-11T02:45:50.651Z,0.00
2022-08-11T02:46:50.708Z,0.00
2022-08-11T02:47:50.636Z,0.00
2022-08-11T02:48:50.630Z,0.00
2022-08-11T02:50:06.313Z,0.00
2022-08-11T02:50:51.593Z,0.00
2022-08-11T02:51:50.599Z,0.00
2022-08-11T02:52:50.606Z,0.00
2022-08-11T02:53:58.258Z,0.00
2022-08-11T02:54:51.561Z,0.00
2022-08-11T02:55:57.838Z,0.00
2022-08-11T02:56:51.533Z,0.00
2022-08-11T02:57:50.535Z,0.00
2022-08-11T02:58:50.523Z,0.00
2022-08-11T02:59:50.496Z,0.00
2022-08-11T03:00:50.485Z,0.00
2022-08-11T03:01:50.513Z,0.00
2022-08-11T03:02:50.468Z,0.00
2022-08-11T03:03:50.466Z,0.00
2022-08-11T03:04:50.441Z,0.00
2022-08-11T03:05:50.480Z,0.00
2022-08-11T03:06:50.418Z,0.00
2022-08-11T03:07:50.407Z,0.00
2022-08-11T03:08:50.399Z,0.00
2022-08-11T03:09:50.414Z,0.00
2022-08-11T03:10:50.379Z,0.00
2022-08-11T03:11:50.365Z,0.00
2022-08-11T03:12:53.694Z,0.00
2022-08-11T03:13:50.350Z,0.00
2022-08-11T03:14:50.344Z,0.00
2022-08-11T03:15:50.328Z,0.00
2022-08-11T03:16:50.310Z,0.00
2022-08-11T03:17:50.309Z,0.00
2022-08-11T03:18:50.297Z,0.00
2022-08-11T03:19:50.376Z,0.00
2022-08-11T03:20:50.261Z,0.00
2022-08-11T03:22:01.394Z,0.00
2022-08-11T03:22:51.251Z,0.00
2022-08-11T03:23:50.231Z,0.00
2022-08-11T03:24:50.218Z,0.00
2022-08-11T03:25:50.229Z,0.00
2022-08-11T03:26:50.196Z,0.00
2022-08-11T03:27:50.254Z,0.00
2022-08-11T03:28:50.179Z,0.00
2022-08-11T03:29:50.168Z,0.00
2022-08-11T03:30:50.165Z,0.00
2022-08-11T03:31:50.157Z,0.00
2022-08-11T03:32:50.131Z,0.00
2022-08-11T03:33:50.122Z,0.00
2022-08-11T03:34:50.129Z,0.00
2022-08-11T03:35:50.100Z,0.00
2022-08-11T03:37:15.469Z,0.00
2022-08-11T03:37:51.133Z,0.00
2022-08-11T03:38:50.072Z,0.00
2022-08-11T03:39:52.719Z,0.00
2022-08-11T03:40:51.071Z,0.00
2022-08-11T03:42:03.180Z,0.00
2022-08-11T03:42:51.037Z,0.00
2022-08-11T03:43:58.109Z,0.00
2022-08-11T03:44:51.010Z,0.00
2022-08-11T03:45:49.995Z,0.00
2022-08-11T03:46:49.981Z,0.00
2022-08-11T03:47:54.980Z,0.00
2022-08-11T03:48:50.971Z,0.00
2022-08-11T03:49:49.982Z,0.00
2022-08-11T03:50:54.820Z,0.00
2022-08-11T03:51:51.888Z,0.00
2022-08-11T03:52:49.933Z,0.00
2022-08-11T03:53:49.923Z,0.00
2022-08-11T03:54:49.892Z,0.00
2022-08-11T03:55:49.884Z,0.00
2022-08-11T03:56:49.882Z,0.00
2022-08-11T03:57:49.874Z,0.00
2022-08-11T03:58:49.853Z,0.00
2022-08-11T03:59:49.845Z,0.00
2022-08-11T04:00:49.848Z,0.00
2022-08-11T04:01:49.876Z,0.00
2022-08-11T04:02:49.814Z,0.00
2022-08-11T04:03:49.814Z,0.00
2022-08-11T04:04:51.268Z,0.00
2022-08-11T04:05:49.768Z,0.00
2022-08-11T04:06:49.762Z,0.00
2022-08-11T04:07:49.758Z,5.62
2022-08-11T04:08:49.764Z,5.62
2022-08-11T04:09:49.731Z,5.62
2022-08-11T04:10:49.722Z,5.62
2022-08-11T04:11:49.714Z,5.62
2022-08-11T04:12:49.958Z,5.62
2022-08-11T04:13:49.679Z,5.62
2022-08-11T04:14:49.673Z,5.62
2022-08-11T04:15:49.669Z,5.62
2022-08-11T04:16:49.685Z,11.25
2022-08-11T04:17:49.675Z,11.25
2022-08-11T04:18:49.632Z,11.25
2022-08-11T04:19:49.620Z,11.25
2022-08-11T04:20:49.628Z,11.25
2022-08-11T04:21:49.613Z,11.25
2022-08-11T04:22:49.595Z,11.25
2022-08-11T04:24:36.542Z,16.88
2022-08-11T04:24:50.790Z,16.88
2022-08-11T04:25:58.106Z,16.88
2022-08-11T04:26:50.555Z,16.88
2022-08-11T04:27:49.524Z,16.88
2022-08-11T04:28:50.356Z,22.50
2022-08-11T04:30:02.004Z,22.50
2022-08-11T04:30:50.508Z,22.50
2022-08-11T04:31:51.454Z,22.50
2022-08-11T04:32:49.542Z,28.12
2022-08-11T04:33:49.498Z,28.12
2022-08-11T04:34:49.455Z,33.75
2022-08-11T04:35:51.358Z,33.75
2022-08-11T04:36:49.449Z,33.75
2022-08-11T04:37:51.322Z,33.75
2022-08-11T04:38:49.418Z,39.38
2022-08-11T04:39:49.513Z,39.38
2022-08-11T04:40:49.393Z,39.38
2022-08-11T04:41:49.463Z,45.00
2022-08-11T04:42:49.436Z,45.00
2022-08-11T04:44:02.385Z,45.00
2022-08-11T04:44:50.350Z,45.00
2022-08-11T04:45:49.355Z,50.62
2022-08-11T04:46:49.331Z,50.62
2022-08-11T04:48:01.859Z,56.25
2022-08-11T04:48:50.301Z,56.25
2022-08-11T04:49:49.299Z,56.25
2022-08-11T04:51:08.693Z,61.88
2022-08-11T04:51:50.296Z,61.88
2022-08-11T04:52:49.279Z,61.88
2022-08-11T04:53:52.380Z,67.50
2022-08-11T04:54:49.241Z,67.50
2022-08-11T04:55:49.247Z,73.12
2022-08-11T04:56:49.273Z,73.12
2022-08-11T04:57:49.202Z,73.12
2022-08-11T04:58:49.187Z,78.75
2022-08-11T04:59:49.180Z,78.75
2022-08-11T05:00:49.173Z,84.38
2022-08-11T05:01:49.306Z,84.38
2022-08-11T05:02:49.150Z,84.38
2022-08-11T05:03:49.137Z,84.38
2022-08-11T05:04:49.125Z,90.00
2022-08-11T05:05:55.368Z,95.62
2022-08-11T05:06:50.117Z,95.62
2022-08-11T05:07:49.101Z,101.25
2022-08-11T05:08:49.105Z,106.88
2022-08-11T05:09:49.064Z,112.50
2022-08-11T05:10:49.056Z,112.50
2022-08-11T05:11:49.131Z,196.88
2022-08-11T05:12:49.054Z,264.38
2022-08-11T05:13:49.040Z,281.25
2022-08-11T05:14:49.027Z,258.75
2022-08-11T05:15:51.575Z,258.75
2022-08-11T05:16:49.030Z,241.88
2022-08-11T05:17:48.994Z,213.75
2022-08-11T05:18:48.994Z,213.75
2022-08-11T05:19:48.964Z,258.75
2022-08-11T05:20:48.951Z,270.00
2022-08-11T05:21:48.944Z,292.50
2022-08-11T05:22:48.929Z,298.12
2022-08-11T05:23:48.946Z,315.00
2022-08-11T05:24:48.917Z,337.50
2022-08-11T05:26:44.984Z,348.75
2022-08-11T05:26:50.043Z,365.62
2022-08-11T05:27:48.875Z,382.50
2022-08-11T05:28:48.882Z,393.75
2022-08-11T05:29:48.867Z,388.12
2022-08-11T05:30:48.847Z,388.12
2022-08-11T05:31:48.836Z,399.38
2022-08-11T05:32:48.823Z,405.00
2022-08-11T05:33:48.820Z,410.62
2022-08-11T05:34:48.800Z,427.50
2022-08-11T05:36:01.501Z,427.50
2022-08-11T05:36:49.786Z,421.88
2022-08-11T05:37:48.785Z,438.75
2022-08-11T05:38:48.753Z,438.75
2022-08-11T05:39:48.767Z,455.62
2022-08-11T05:40:51.382Z,478.12
2022-08-11T05:41:48.734Z,472.50
2022-08-11T05:42:48.701Z,461.25
2022-08-11T05:44:20.193Z,478.12
2022-08-11T05:44:49.685Z,511.88
2022-08-11T05:46:02.885Z,500.62
2022-08-11T05:46:49.661Z,506.25
2022-08-11T05:47:48.652Z,523.12
2022-08-11T05:48:48.655Z,545.62
2022-08-11T05:49:48.720Z,562.50
2022-08-11T05:50:48.623Z,551.25
2022-08-11T05:51:55.523Z,562.50
2022-08-11T05:52:55.330Z,601.88
2022-08-11T05:53:49.593Z,585.00
2022-08-11T05:54:48.573Z,601.88
2022-08-11T05:56:02.247Z,607.50
2022-08-11T05:56:49.568Z,641.25
2022-08-11T05:57:51.500Z,646.88
2022-08-11T05:58:48.544Z,630.00
2022-08-11T05:59:48.519Z,635.62
2022-08-11T06:00:48.515Z,613.12
2022-08-11T06:01:48.531Z,624.38
2022-08-11T06:02:48.494Z,652.50
2022-08-11T06:03:58.100Z,646.88
2022-08-11T06:04:49.479Z,675.00
2022-08-11T06:05:48.455Z,697.50
2022-08-11T06:06:48.451Z,714.38
2022-08-11T06:07:49.530Z,742.50
2022-08-11T06:08:48.430Z,753.75
2022-08-11T06:09:48.414Z,793.12
2022-08-11T06:10:48.419Z,804.38
2022-08-11T06:11:48.393Z,759.38
2022-08-11T06:12:48.380Z,781.88
2022-08-11T06:13:48.421Z,776.25
2022-08-11T06:14:48.358Z,765.00
2022-08-11T06:15:48.408Z,765.00
2022-08-11T06:16:48.431Z,776.25
2022-08-11T06:17:48.318Z,821.25
2022-08-11T06:18:48.314Z,871.88
2022-08-11T06:19:48.306Z,838.12
2022-08-11T06:20:48.300Z,838.12
2022-08-11T06:21:48.278Z,838.12
2022-08-11T06:22:52.470Z,911.25
2022-08-11T06:23:48.269Z,945.00
2022-08-11T06:24:48.267Z,871.88
2022-08-11T06:25:48.235Z,911.25
2022-08-11T06:27:09.083Z,1001.25
2022-08-11T06:27:49.218Z,961.88
2022-08-11T06:28:48.200Z,950.62
2022-08-11T06:29:55.123Z,545.62
2022-08-11T06:30:49.238Z,973.12
2022-08-11T06:31:48.164Z,1040.62
2022-08-11T06:32:48.168Z,1001.25
2022-08-11T06:33:48.149Z,939.38
2022-08-11T06:34:48.131Z,1001.25
2022-08-11T06:35:48.132Z,1136.25
2022-08-11T06:36:48.110Z,1085.62
2022-08-11T06:37:48.131Z,1035.00
2022-08-11T06:38:48.085Z,1023.75
2022-08-11T06:39:48.213Z,956.25
2022-08-11T06:40:48.072Z,984.38
2022-08-11T06:41:48.067Z,1074.38
2022-08-11T06:42:48.059Z,1125.00
2022-08-11T06:43:55.406Z,1158.75
2022-08-11T06:44:49.035Z,1158.75
2022-08-11T06:45:48.017Z,1192.50
2022-08-11T06:46:48.011Z,1125.00
2022-08-11T06:47:47.999Z,1181.25
2022-08-11T06:48:48.007Z,1192.50
2022-08-11T06:49:47.986Z,1153.12
2022-08-11T06:50:48.008Z,1203.75
2022-08-11T06:51:47.948Z,365.62
2022-08-11T06:52:48.119Z,376.88
2022-08-11T06:54:03.043Z,1288.12
2022-08-11T06:54:48.909Z,1226.25
2022-08-11T06:55:56.924Z,1305.00
2022-08-11T06:56:57.484Z,1316.25
2022-08-11T06:57:48.880Z,1068.75
2022-08-11T06:58:47.893Z,1170.00
2022-08-11T06:59:47.873Z,1316.25
2022-08-11T07:00:47.860Z,1417.50
2022-08-11T07:01:49.426Z,1102.50
2022-08-11T07:02:47.829Z,1316.25
2022-08-11T07:03:47.824Z,1299.38
2022-08-11T07:04:47.818Z,1423.12
2022-08-11T07:05:47.791Z,781.88
2022-08-11T07:06:50.900Z,1372.50
2022-08-11T07:07:47.786Z,1417.50
2022-08-11T07:08:47.763Z,1423.12
2022-08-11T07:09:47.768Z,1434.38
2022-08-11T07:10:47.741Z,1462.50
2022-08-11T07:11:47.769Z,1546.88
2022-08-11T07:12:47.715Z,1473.75
2022-08-11T07:13:47.739Z,1074.38
2022-08-11T07:14:47.697Z,1524.38
2022-08-11T07:16:10.763Z,1428.75
2022-08-11T07:16:48.707Z,1507.50
2022-08-11T07:17:47.681Z,1580.62
2022-08-11T07:18:47.655Z,1501.88
2022-08-11T07:19:47.653Z,1524.38
2022-08-11T07:20:47.660Z,1440.00
2022-08-11T07:22:00.944Z,1513.12
2022-08-11T07:22:48.637Z,1563.75
2022-08-11T07:23:47.598Z,1473.75
2022-08-11T07:24:59.628Z,1513.12
2022-08-11T07:25:48.611Z,1428.75
2022-08-11T07:26:47.572Z,1552.50
2022-08-11T07:27:47.564Z,1608.75
2022-08-11T07:28:47.566Z,1108.12
2022-08-11T07:29:47.603Z,1665.00
2022-08-11T07:30:47.531Z,1704.38
2022-08-11T07:31:48.513Z,1665.00
2022-08-11T07:32:47.502Z,1552.50
2022-08-11T07:34:05.879Z,1535.62
2022-08-11T07:34:48.499Z,1625.62
2022-08-11T07:35:47.470Z,1743.75
2022-08-11T07:36:47.450Z,1631.25
2022-08-11T07:37:47.447Z,1546.88
2022-08-11T07:38:47.776Z,1575.00
2022-08-11T07:39:47.488Z,1681.88
2022-08-11T07:40:47.420Z,1788.75
2022-08-11T07:41:47.419Z,1895.62
2022-08-11T07:42:47.434Z,2025.00
2022-08-11T07:43:47.380Z,1856.25
2022-08-11T07:44:47.379Z,1665.00
2022-08-11T07:45:47.396Z,1895.62
2022-08-11T07:46:47.347Z,1389.38
2022-08-11T07:47:47.336Z,1755.00
2022-08-11T07:48:47.390Z,1996.88
2022-08-11T07:49:47.318Z,2036.25
2022-08-11T07:50:47.306Z,1884.38
2022-08-11T07:51:47.304Z,888.75
2022-08-11T07:52:47.293Z,1856.25
2022-08-11T07:53:58.271Z,1811.25
2022-08-11T07:54:51.345Z,1755.00
2022-08-11T07:55:51.889Z,1884.38
2022-08-11T07:56:54.969Z,2025.00
2022-08-11T07:58:15.136Z,1811.25
2022-08-11T07:58:53.138Z,1743.75
2022-08-11T08:00:03.598Z,1513.12
2022-08-11T08:00:49.102Z,1760.62
2022-08-11T08:01:47.248Z,1715.62
2022-08-11T08:02:47.229Z,1636.88
2022-08-11T08:03:53.694Z,1777.50
2022-08-11T08:04:48.144Z,1968.75
2022-08-11T08:05:47.146Z,2075.62
2022-08-11T08:06:47.175Z,1918.12
2022-08-11T08:07:47.133Z,1895.62
2022-08-11T08:08:47.117Z,2013.75
2022-08-11T08:09:47.139Z,2075.62
2022-08-11T08:10:47.083Z,1918.12
2022-08-11T08:11:47.071Z,1951.88
2022-08-11T08:12:47.068Z,1968.75
2022-08-11T08:13:47.050Z,2283.75
2022-08-11T08:14:47.054Z,2306.25
2022-08-11T08:15:47.048Z,1963.12
2022-08-11T08:16:47.044Z,2098.12
2022-08-11T08:18:09.093Z,2109.38
2022-08-11T08:18:48.007Z,2086.88
2022-08-11T08:19:46.992Z,2098.12
2022-08-11T08:20:47.014Z,2182.50
2022-08-11T08:21:46.969Z,2013.75
2022-08-11T08:22:48.694Z,1260.00
2022-08-11T08:23:46.975Z,1935.00
2022-08-11T08:24:46.931Z,2165.62
2022-08-11T08:25:46.929Z,2272.50
2022-08-11T08:26:51.400Z,2283.75
2022-08-11T08:27:47.903Z,2137.50
2022-08-11T08:28:46.906Z,2210.62
2022-08-11T08:29:46.878Z,2368.12
2022-08-11T08:30:46.865Z,2221.88
2022-08-11T08:31:46.868Z,843.75
2022-08-11T08:32:46.879Z,2418.75
2022-08-11T08:33:46.833Z,2446.88
2022-08-11T08:34:46.820Z,2064.38
2022-08-11T08:35:54.579Z,2064.38
2022-08-11T08:36:47.855Z,2328.75
2022-08-11T08:37:47.819Z,545.62
2022-08-11T08:38:46.833Z,1906.88
2022-08-11T08:39:46.792Z,1209.38
2022-08-11T08:40:46.750Z,1490.62
2022-08-11T09:12:42.903Z,2598.75
2022-08-11T09:13:42.731Z,2638.12
2022-08-11T09:14:15.206Z,2610.00
2022-08-11T09:15:13.563Z,2705.62
2022-08-11T09:16:13.551Z,2913.75
2022-08-11T09:17:13.543Z,2739.38
2022-08-11T09:18:13.531Z,2581.88
2022-08-11T09:19:13.547Z,2621.25
2022-08-11T09:20:13.544Z,2666.25
2022-08-11T09:21:13.502Z,2615.62
2022-08-11T09:22:13.504Z,2503.12
2022-08-11T09:24:24.852Z,2463.75
2022-08-11T09:25:14.473Z,2480.62
2022-08-11T09:26:13.551Z,3009.38
2022-08-11T09:27:13.435Z,2705.62
2022-08-11T09:28:13.421Z,1906.88
2022-08-11T09:29:13.414Z,1366.88
2022-08-11T09:30:13.454Z,1743.75
2022-08-11T09:31:13.665Z,2536.88
2022-08-11T09:32:13.379Z,2103.75
2022-08-11T09:33:13.365Z,939.38
2022-08-11T09:34:13.359Z,686.25
2022-08-11T09:35:13.351Z,1192.50
2022-08-11T09:36:13.390Z,573.75
2022-08-11T09:37:13.390Z,534.38
2022-08-11T09:38:14.331Z,506.25
2022-08-11T09:39:13.405Z,1276.88
2022-08-11T09:40:13.286Z,556.88
2022-08-11T09:41:13.286Z,1305.00
2022-08-11T09:42:16.668Z,579.38
2022-08-11T09:43:14.259Z,2362.50
2022-08-11T09:44:13.259Z,2463.75
2022-08-11T09:45:13.241Z,2666.25
2022-08-11T09:46:13.228Z,2655.00
2022-08-11T09:47:13.218Z,2790.00
2022-08-11T09:48:13.219Z,2671.88
2022-08-11T09:49:13.197Z,2981.25
2022-08-11T09:50:13.197Z,3195.00
2022-08-11T09:51:13.166Z,2891.25
2022-08-11T09:52:13.148Z,3183.75
2022-08-11T09:53:37.120Z,3217.50
2022-08-11T09:54:14.134Z,2919.38
2022-08-11T09:55:13.149Z,2745.00
2022-08-11T09:56:13.144Z,2818.12
2022-08-11T09:57:13.111Z,2981.25
2022-08-11T09:58:13.161Z,2835.00
2022-08-11T09:59:14.080Z,2486.25
2022-08-11T10:00:13.937Z,2694.38
2022-08-11T10:01:13.103Z,2896.88
2022-08-11T10:02:13.058Z,2655.00
2022-08-11T10:03:13.066Z,2581.88
2022-08-11T10:04:13.031Z,2925.00
2022-08-11T10:05:13.017Z,3009.38
2022-08-11T10:06:12.994Z,2885.62
2022-08-11T10:07:13.040Z,2818.12
2022-08-11T10:08:13.008Z,2655.00
2022-08-11T10:09:12.994Z,2390.62
2022-08-11T10:10:12.957Z,2356.88
2022-08-11T10:11:12.948Z,2475.00
2022-08-11T10:12:12.948Z,2598.75
2022-08-11T10:14:32.080Z,2812.50
2022-08-11T10:14:32.883Z,3003.75
2022-08-11T10:15:13.909Z,922.50
2022-08-11T10:16:16.309Z,1901.25
2022-08-11T10:17:12.949Z,2941.88
2022-08-11T10:18:13.024Z,3105.00
2022-08-11T10:19:12.885Z,3110.62
2022-08-11T10:20:12.849Z,3155.62
2022-08-11T10:21:12.840Z,3144.38
2022-08-11T10:22:12.843Z,2508.75
2022-08-11T10:23:12.819Z,2036.25
2022-08-11T10:24:12.821Z,703.12
2022-08-11T10:25:12.793Z,669.38
2022-08-11T10:26:12.782Z,618.75
2022-08-11T10:27:12.808Z,613.12
2022-08-11T10:28:32.973Z,635.62
2022-08-11T10:29:14.085Z,641.25
2022-08-11T10:30:12.744Z,2536.88
2022-08-11T10:31:13.759Z,2823.75
2022-08-11T10:32:12.719Z,2756.25
2022-08-11T10:33:12.714Z,2728.12
2022-08-11T10:34:13.750Z,2947.50
2022-08-11T10:35:12.690Z,2806.88
2022-08-11T10:36:16.473Z,2610.00
2022-08-11T10:37:14.933Z,2700.00
2022-08-11T10:38:12.695Z,3015.00
2022-08-11T10:39:12.677Z,3206.25
2022-08-11T10:40:12.725Z,3161.25
2022-08-11T10:41:12.625Z,2947.50
2022-08-11T10:42:21.036Z,2857.50
2022-08-11T10:43:14.499Z,2913.75
2022-08-11T10:44:13.590Z,2958.75
2022-08-11T10:45:12.615Z,2171.25
2022-08-11T10:46:12.614Z,742.50
2022-08-11T10:47:12.569Z,2216.25
2022-08-11T10:48:15.662Z,2728.12
2022-08-11T10:49:12.549Z,1951.88
2022-08-11T10:50:12.535Z,624.38
2022-08-11T10:51:12.533Z,562.50
2022-08-11T10:52:12.509Z,506.25
2022-08-11T10:53:12.520Z,489.38
2022-08-11T10:54:12.775Z,478.12
2022-08-11T10:55:12.496Z,478.12
2022-08-11T10:56:12.468Z,472.50
2022-08-11T10:57:12.693Z,466.88
2022-08-11T10:58:12.447Z,455.62
2022-08-11T10:59:12.433Z,461.25
2022-08-11T11:00:12.460Z,444.38
2022-08-11T11:01:12.507Z,438.75
2022-08-11T11:02:12.409Z,427.50
2022-08-11T11:03:22.797Z,421.88
2022-08-11T11:04:13.400Z,450.00
2022-08-11T11:05:12.376Z,461.25
2022-08-11T11:06:27.566Z,466.88
2022-08-11T11:07:13.363Z,472.50
2022-08-11T11:08:12.352Z,472.50
2022-08-11T11:09:12.435Z,483.75
2022-08-11T11:10:12.396Z,500.62
2022-08-11T11:11:12.315Z,511.88
2022-08-11T11:12:13.295Z,534.38
2022-08-11T11:13:12.289Z,551.25
2022-08-11T11:14:12.271Z,545.62
2022-08-11T11:15:17.901Z,551.25
2022-08-11T11:16:13.254Z,556.88
2022-08-11T11:17:14.139Z,1237.50
2022-08-11T11:18:12.247Z,2581.88
2022-08-11T11:19:12.225Z,2778.75
2022-08-11T11:20:34.578Z,2823.75
2022-08-11T11:21:13.239Z,2863.12
2022-08-11T11:22:12.186Z,2576.25
2022-08-11T11:23:12.404Z,2272.50
2022-08-11T11:24:12.163Z,2424.38
2022-08-11T11:25:12.166Z,2745.00
2022-08-11T11:26:12.168Z,2964.38
2022-08-11T11:27:12.132Z,3060.00
2022-08-11T11:28:12.119Z,3161.25
2022-08-11T11:29:12.146Z,3043.12
2022-08-11T11:30:12.097Z,2700.00
2022-08-11T11:31:12.091Z,2486.25
2022-08-11T11:32:12.081Z,534.38
2022-08-11T11:33:12.086Z,489.38
2022-08-11T11:34:13.045Z,466.88
2022-08-11T11:35:12.056Z,455.62
2022-08-11T11:36:12.052Z,433.12
2022-08-11T11:37:12.024Z,410.62
2022-08-11T11:38:14.175Z,399.38
2022-08-11T11:39:12.091Z,388.12
2022-08-11T11:40:11.995Z,393.75
2022-08-11T11:41:11.997Z,393.75
2022-08-11T11:42:12.039Z,399.38
2022-08-11T11:43:11.969Z,421.88
2022-08-11T11:44:11.947Z,416.25
2022-08-11T11:45:23.445Z,433.12
2022-08-11T11:46:12.943Z,450.00
2022-08-11T11:47:11.975Z,466.88
2022-08-11T11:48:11.902Z,489.38
2022-08-11T11:49:17.085Z,500.62
2022-08-11T11:50:12.970Z,506.25
2022-08-11T11:51:11.864Z,523.12
2022-08-11T11:52:11.871Z,545.62
2022-08-11T11:53:11.917Z,579.38
2022-08-11T11:54:11.846Z,613.12
2022-08-11T11:55:11.898Z,630.00
2022-08-11T11:56:11.808Z,703.12
2022-08-11T11:57:11.802Z,725.62
2022-08-11T11:58:11.895Z,725.62
2022-08-11T11:59:14.655Z,691.88
2022-08-11T12:00:11.805Z,731.25
2022-08-11T12:01:11.758Z,855.00
2022-08-11T12:02:12.629Z,826.88
2022-08-11T12:03:11.764Z,2098.12
2022-08-11T12:04:11.838Z,2441.25
2022-08-11T12:05:11.720Z,2255.62
2022-08-11T12:06:11.746Z,776.25
2022-08-11T12:07:11.688Z,2480.62
2022-08-11T12:08:13.180Z,2424.38
2022-08-11T12:09:11.690Z,950.62
2022-08-11T12:10:11.734Z,2086.88
2022-08-11T12:11:11.707Z,1591.88
2022-08-11T12:12:11.633Z,686.25
2022-08-11T12:13:11.628Z,2238.75
2022-08-11T12:14:11.619Z,1681.88
2022-08-11T12:15:11.621Z,1198.12
2022-08-11T12:16:34.294Z,866.25
2022-08-11T12:17:12.576Z,641.25
2022-08-11T12:18:11.603Z,669.38
2022-08-11T12:19:11.570Z,697.50
2022-08-11T12:20:31.817Z,838.12
2022-08-11T12:21:12.649Z,1350.00
2022-08-11T12:22:11.529Z,1091.25
2022-08-11T12:23:11.525Z,826.88
2022-08-11T12:24:11.499Z,1620.00
2022-08-11T12:25:11.496Z,1271.25
2022-08-11T12:26:27.072Z,601.88
2022-08-11T12:27:16.080Z,545.62
2022-08-11T12:28:11.466Z,478.12
2022-08-11T12:29:11.478Z,444.38
2022-08-11T12:30:11.447Z,444.38
2022-08-11T12:31:11.435Z,478.12
2022-08-11T12:32:11.537Z,500.62
2022-08-11T12:33:11.416Z,596.25
2022-08-11T12:34:11.413Z,2278.12
2022-08-11T12:35:11.414Z,995.62
2022-08-11T12:36:11.382Z,585.00
2022-08-11T12:37:13.251Z,551.25
2022-08-11T12:38:12.716Z,590.62
2022-08-11T12:39:22.977Z,646.88
2022-08-11T12:40:42.693Z,714.38
2022-08-11T12:41:15.031Z,2210.62
2022-08-11T12:42:11.305Z,2193.75
2022-08-11T12:43:21.882Z,2098.12
2022-08-11T12:44:12.298Z,2143.12
2022-08-11T12:45:22.594Z,2131.88
2022-08-11T12:46:12.277Z,2115.00
2022-08-11T12:47:11.257Z,1985.62
2022-08-11T12:48:59.589Z,1929.38
2022-08-11T12:49:12.238Z,2086.88
2022-08-11T12:50:22.896Z,2255.62
2022-08-11T12:51:12.210Z,2334.38
2022-08-11T12:52:15.346Z,2238.75
2022-08-11T12:53:11.208Z,2205.00
2022-08-11T12:54:11.181Z,2323.12
2022-08-11T12:55:13.759Z,2289.38
2022-08-11T12:56:11.161Z,2075.62
2022-08-11T12:57:11.159Z,2008.12
2022-08-11T12:58:11.150Z,2165.62
2022-08-11T12:59:11.136Z,646.88
2022-08-11T13:00:11.225Z,568.12
2022-08-11T13:01:12.584Z,703.12
2022-08-11T13:02:11.163Z,1873.12
2022-08-11T13:03:11.081Z,382.50
2022-08-11T13:04:11.099Z,348.75
2022-08-11T13:05:11.317Z,331.88
2022-08-11T13:06:11.061Z,303.75
2022-08-11T13:07:11.041Z,298.12
2022-08-11T13:08:11.081Z,292.50
2022-08-11T13:09:11.024Z,292.50
2022-08-11T13:10:16.787Z,292.50